ULLI/LED METAR and TAF weather

Enter ICAO airport designator
Station Type Date Time Source
ULLI METAR 2020/01/23 18:00 UTC NOAA

ULLI 231800Z 22003MPS 170V270 9999 -SHSN BKN020CB BKN040 M01/M02 Q1007 R28L/490536 NOSIG


Station Type Date Time Source
ULLI Decoded METAR 2020/01/23 18:00 UTC NOAA

St. Peterburg, Russia (ULLI) 59-58N 030-18E 6M
Jan 23, 2020 - 01:00 PM EST / 2020.01.23 1800 UTC
Wind: from the SW (220 degrees) at 7 MPH (6 KT) (direction variable):0
Visibility: greater than 7 mile(s):0
Sky conditions: mostly cloudy
Weather: light snow showers; Cumulonimbus clouds observed
Temperature: 30 F (-1 C)
Windchill: 23 F (-5 C):1
Dew Point: 28 F (-2 C)
Relative Humidity: 92%
Pressure (altimeter): 29.74 in. Hg (1007 hPa)
ob: ULLI 231800Z 22003MPS 170V270 9999 -SHSN BKN020CB BKN040 M01/M02 Q1007 R28L/490536 NOSIG
cycle: 18

Station Type Date Time Source
ULLI TAF 2020/01/23 18:21 UTC NOAA

TAF TAF ULLI 231657Z 2318/2418 24006MPS 5000 -SN BKN011 BKN020
TEMPO 2318/2406 27006G12MPS 1500 SHSNRA BKN007 BKN015CB
BECMG 2406/2407 6000 NSW
TEMPO 2407/2418 28007G14MPS 3100 -SHRASN BKN007 BKN020CB

Example: see airport list